Time;durP1;ratioP1;P1;durP2;ratioP2;P2;SDS_P1;SDS_P2;PMS_P1;PMS_P2;Temp;Humidity;BMP_temperature;BMP_pressure;BME280_temperature;BME280_humidity;BME280_pressure;Samples;Min_cycle;Max_cycle;Signal;HPM_P1;HPM_P2
2020/12/22 00:01:18;;;;;;;8.60;6.30;;;7.90;99.90;;;;;;5056661;28;20174;-86
2020/12/22 00:03:45;;;;;;;8.97;5.50;;;7.90;99.90;;;;;;5055503;28;20182;-85
2020/12/22 00:06:11;;;;;;;8.50;6.30;;;8.00;99.90;;;;;;5071588;28;20416;-84
2020/12/22 00:08:37;;;;;;;8.53;5.70;;;8.00;99.90;;;;;;5055866;28;20477;-87
2020/12/22 00:11:03;;;;;;;8.83;6.20;;;7.90;99.90;;;;;;5070500;28;20428;-85
2020/12/22 00:13:29;;;;;;;8.13;5.70;;;7.90;99.90;;;;;;5070296;28;20562;-85
2020/12/22 00:15:55;;;;;;;6.53;5.00;;;7.90;99.90;;;;;;5053698;28;20854;-86
2020/12/22 00:18:21;;;;;;;9.57;5.47;;;7.90;99.90;;;;;;5055566;28;20417;-84
2020/12/22 00:20:47;;;;;;;7.30;4.80;;;8.00;99.90;;;;;;5071377;28;20633;-85
2020/12/22 00:23:13;;;;;;;6.60;5.60;;;7.90;99.90;;;;;;5053465;28;20190;-85
2020/12/22 00:25:46;;;;;;;5.90;5.27;;;7.90;99.90;;;;;;5035736;28;20420;-85
2020/12/22 00:28:13;;;;;;;7.27;5.10;;;8.00;99.90;;;;;;5036801;28;20517;-85
2020/12/22 00:30:40;;;;;;;7.03;4.00;;;7.90;99.90;;;;;;5036477;28;20821;-86
2020/12/22 00:33:07;;;;;;;7.17;5.30;;;8.00;99.90;;;;;;5034435;28;20498;-86
2020/12/22 00:35:34;;;;;;;7.30;5.43;;;7.90;99.90;;;;;;5034188;28;20437;-84
2020/12/22 00:38:00;;;;;;;7.10;4.40;;;8.00;99.90;;;;;;5035692;28;20413;-87
2020/12/22 00:40:27;;;;;;;6.90;4.87;;;8.00;99.90;;;;;;5034382;28;20519;-87
2020/12/22 00:42:53;;;;;;;8.23;5.83;;;7.90;99.90;;;;;;5040741;28;20511;-90
2020/12/22 00:45:19;;;;;;;7.20;4.90;;;8.00;99.90;;;;;;5043332;28;20425;-90
2020/12/22 00:47:45;;;;;;;6.70;5.70;;;7.90;99.90;;;;;;5044198;28;20189;-89
2020/12/22 00:50:11;;;;;;;6.93;5.13;;;8.00;99.90;;;;;;5041183;28;20429;-89
2020/12/22 00:52:36;;;;;;;5.77;4.57;;;8.00;99.90;;;;;;5039908;28;20270;-88
2020/12/22 00:55:02;;;;;;;7.23;4.90;;;8.00;99.90;;;;;;5040259;28;20202;-90
2020/12/22 00:57:28;;;;;;;7.37;5.17;;;8.00;99.90;;;;;;5061055;28;20703;-88
2020/12/22 00:59:53;;;;;;;6.20;4.67;;;8.00;99.90;;;;;;5062652;28;20424;-89
2020/12/22 01:02:19;;;;;;;10.07;6.40;;;8.10;99.90;;;;;;5066107;28;20203;-90
2020/12/22 01:04:45;;;;;;;7.53;6.00;;;8.10;99.90;;;;;;5065422;28;20196;-86
2020/12/22 01:07:11;;;;;;;7.70;5.73;;;8.10;99.90;;;;;;5062508;28;20618;-87
2020/12/22 01:09:37;;;;;;;6.77;4.33;;;8.20;99.90;;;;;;5058277;28;20169;-87
2020/12/22 01:12:03;;;;;;;8.00;5.17;;;8.10;99.90;;;;;;5042289;28;20412;-86
2020/12/22 01:14:29;;;;;;;8.63;5.47;;;8.10;99.90;;;;;;5068299;28;20215;-88
2020/12/22 01:16:55;;;;;;;9.43;5.60;;;8.20;99.90;;;;;;5087390;28;20442;-86
2020/12/22 01:19:20;;;;;;;5.60;4.50;;;8.20;99.90;;;;;;5069434;28;20181;-88
2020/12/22 01:21:50;;;;;;;7.63;5.63;;;8.30;99.90;;;;;;5047455;28;20185;-86
2020/12/22 01:24:15;;;;;;;7.87;4.80;;;8.20;99.90;;;;;;5058612;28;20170;-92
2020/12/22 01:26:41;;;;;;;7.93;6.03;;;8.20;99.90;;;;;;5058568;28;20462;-92
2020/12/22 01:29:07;;;;;;;6.50;4.80;;;8.20;99.90;;;;;;5059663;28;20575;-86
2020/12/22 01:31:32;;;;;;;9.10;5.50;;;8.30;99.90;;;;;;5060537;28;20191;-87
2020/12/22 01:33:58;;;;;;;7.17;5.50;;;8.30;99.90;;;;;;5042843;28;20213;-87
2020/12/22 01:36:25;;;;;;;6.47;5.10;;;8.30;99.90;;;;;;5063503;28;20516;-91
2020/12/22 01:38:51;;;;;;;8.67;5.30;;;8.30;99.90;;;;;;5084392;28;20423;-86
2020/12/22 01:41:17;;;;;;;9.60;4.80;;;8.30;99.90;;;;;;5065746;28;20940;-87
2020/12/22 01:43:59;;;;;;;7.40;4.77;;;8.30;99.90;;;;;;5086127;28;20177;-89
2020/12/22 01:46:31;;;;;;;7.23;4.87;;;8.30;99.90;;;;;;5084678;28;20400;-86
2020/12/22 01:48:58;;;;;;;7.50;4.53;;;8.30;99.90;;;;;;5063267;28;20422;-89
2020/12/22 01:51:25;;;;;;;8.80;4.53;;;8.40;99.90;;;;;;5087415;28;20503;-85
2020/12/22 01:53:50;;;;;;;3.90;2.83;;;8.40;99.90;;;;;;5088737;28;20842;-86
2020/12/22 01:56:16;;;;;;;6.90;4.80;;;8.40;99.90;;;;;;5068338;28;20494;-85
2020/12/22 01:58:42;;;;;;;9.03;5.40;;;8.40;99.90;;;;;;5084216;28;20240;-86
2020/12/22 02:01:10;;;;;;;7.73;4.27;;;8.40;99.90;;;;;;5081608;28;20173;-85
2020/12/22 02:03:35;;;;;;;5.60;4.23;;;8.50;99.90;;;;;;5068954;28;20950;-85
2020/12/22 02:06:07;;;;;;;6.40;3.90;;;8.50;99.90;;;;;;5043261;28;20412;-85
2020/12/22 02:08:35;;;;;;;8.00;5.30;;;8.50;99.90;;;;;;5062111;28;20189;-86
2020/12/22 02:11:01;;;;;;;4.73;3.03;;;8.40;99.90;;;;;;5069438;28;20412;-85
2020/12/22 02:13:27;;;;;;;7.17;3.90;;;8.50;99.90;;;;;;5054349;28;20483;-86
2020/12/22 02:15:53;;;;;;;7.97;5.23;;;8.50;99.90;;;;;;5073644;28;20396;-85
2020/12/22 02:18:19;;;;;;;6.50;4.83;;;8.50;99.90;;;;;;5073037;28;20451;-87
2020/12/22 02:20:51;;;;;;;8.60;4.40;;;8.50;99.90;;;;;;5042163;28;20412;-86
2020/12/22 02:23:19;;;;;;;5.03;3.70;;;8.50;99.90;;;;;;5050109;28;20221;-84
2020/12/22 02:25:46;;;;;;;6.17;4.07;;;8.60;99.90;;;;;;5047884;28;20479;-85
2020/12/22 02:28:14;;;;;;;6.10;4.37;;;8.60;99.90;;;;;;5059053;28;20409;-86
2020/12/22 02:30:44;;;;;;;6.27;4.20;;;8.70;99.90;;;;;;5057198;28;20443;-85
2020/12/22 02:33:11;;;;;;;6.43;4.30;;;8.60;99.90;;;;;;5071695;28;20451;-85
2020/12/22 02:35:37;;;;;;;5.23;2.77;;;8.80;99.90;;;;;;5038269;28;20431;-86
2020/12/22 02:38:06;;;;;;;5.27;3.57;;;8.80;99.90;;;;;;5069924;28;20436;-87
2020/12/22 02:40:32;;;;;;;5.47;4.40;;;8.80;99.90;;;;;;5068244;28;20404;-86
2020/12/22 02:43:10;;;;;;;5.23;3.73;;;8.80;99.90;;;;;;5059615;28;20416;-87
2020/12/22 02:45:37;;;;;;;6.87;4.17;;;8.80;99.90;;;;;;5062810;28;20241;-88
2020/12/22 02:48:03;;;;;;;6.80;4.13;;;8.90;99.90;;;;;;5058789;28;20421;-90
2020/12/22 02:50:29;;;;;;;4.53;3.87;;;8.90;99.90;;;;;;5067827;28;20432;-86
2020/12/22 02:52:55;;;;;;;4.33;3.67;;;8.90;99.90;;;;;;5054470;28;20224;-89
2020/12/22 02:55:20;;;;;;;5.40;3.47;;;8.90;99.90;;;;;;5067151;28;20492;-89
2020/12/22 02:57:46;;;;;;;5.60;4.27;;;8.90;99.90;;;;;;5063443;28;20225;-88
2020/12/22 03:00:16;;;;;;;3.43;2.70;;;9.00;99.90;;;;;;5049270;28;20174;-89
2020/12/22 03:02:42;;;;;;;5.50;4.00;;;9.00;99.90;;;;;;5047911;28;20186;-88
2020/12/22 03:05:08;;;;;;;3.83;2.60;;;9.00;99.90;;;;;;5063652;28;20431;-86
2020/12/22 03:07:34;;;;;;;7.60;3.00;;;9.00;99.90;;;;;;5057411;28;20187;-87
2020/12/22 03:09:59;;;;;;;4.07;2.90;;;9.10;99.90;;;;;;5060631;28;20216;-88
2020/12/22 03:12:25;;;;;;;5.27;3.10;;;9.10;99.90;;;;;;5042189;28;20456;-89
2020/12/22 03:14:51;;;;;;;3.80;3.37;;;9.10;99.90;;;;;;5060496;28;20266;-85
2020/12/22 03:17:16;;;;;;;4.93;3.30;;;9.10;99.90;;;;;;5058340;28;20202;-86
2020/12/22 03:19:43;;;;;;;3.40;2.27;;;9.10;99.90;;;;;;5065234;28;20228;-87
2020/12/22 03:22:09;;;;;;;4.50;2.73;;;9.20;99.90;;;;;;5066550;28;20212;-85
2020/12/22 03:24:38;;;;;;;6.00;3.33;;;9.20;99.90;;;;;;5055158;28;20432;-85
2020/12/22 03:27:03;;;;;;;3.33;2.27;;;9.10;99.90;;;;;;5074594;28;20166;-92
2020/12/22 03:29:31;;;;;;;3.30;2.13;;;9.30;99.90;;;;;;5056029;28;20519;-86
2020/12/22 03:31:57;;;;;;;3.60;2.13;;;9.30;99.90;;;;;;5071404;28;20206;-89
2020/12/22 03:34:23;;;;;;;4.47;2.83;;;9.30;99.90;;;;;;5072544;28;20417;-87
2020/12/22 03:36:51;;;;;;;2.57;2.37;;;9.30;99.90;;;;;;5069516;28;20170;-91
2020/12/22 03:39:18;;;;;;;2.97;1.20;;;9.40;99.90;;;;;;5053007;28;20174;-91
2020/12/22 03:41:43;;;;;;;4.87;1.87;;;9.30;99.90;;;;;;5070755;28;20431;-89
2020/12/22 03:44:09;;;;;;;2.93;1.90;;;9.30;99.90;;;;;;5064740;28;20807;-86
2020/12/22 03:46:35;;;;;;;2.00;1.10;;;9.30;99.90;;;;;;5071278;28;20177;-89
2020/12/22 03:49:00;;;;;;;4.07;2.00;;;9.40;99.90;;;;;;5072245;28;20256;-90
2020/12/22 03:51:26;;;;;;;2.43;0.97;;;9.40;99.90;;;;;;5072545;28;20178;-91
2020/12/22 03:53:52;;;;;;;2.00;1.33;;;9.40;99.90;;;;;;5072451;28;20213;-90
2020/12/22 03:56:17;;;;;;;6.10;1.87;;;9.40;99.90;;;;;;5056012;28;20511;-92
2020/12/22 03:58:44;;;;;;;1.87;1.33;;;9.40;99.90;;;;;;5054411;28;20561;-91
2020/12/22 04:01:10;;;;;;;2.60;1.10;;;9.40;99.90;;;;;;5071712;28;20227;-90
2020/12/22 04:03:35;;;;;;;2.20;0.83;;;9.40;99.90;;;;;;5054605;28;20424;-89
2020/12/22 04:06:01;;;;;;;4.00;1.23;;;9.50;99.90;;;;;;5071608;28;20162;-92
2020/12/22 04:08:26;;;;;;;4.70;1.63;;;9.50;99.90;;;;;;5071436;28;20173;-89
2020/12/22 04:10:52;;;;;;;2.20;1.33;;;9.60;99.90;;;;;;5069719;28;20654;-90
2020/12/22 04:13:18;;;;;;;2.00;0.83;;;9.50;99.90;;;;;;5053814;28;20214;-94
2020/12/22 04:15:43;;;;;;;2.50;1.03;;;9.50;99.90;;;;;;5053238;28;20178;-90
2020/12/22 04:18:09;;;;;;;2.43;1.20;;;9.50;99.90;;;;;;5070183;28;20214;-89
2020/12/22 04:20:34;;;;;;;2.63;1.60;;;9.60;99.90;;;;;;5069104;28;20178;-94
2020/12/22 04:23:00;;;;;;;1.53;0.43;;;9.50;99.90;;;;;;5067473;28;20206;-95
2020/12/22 04:25:27;;;;;;;1.90;0.60;;;9.60;99.90;;;;;;5052768;28;20246;-96
2020/12/22 04:27:52;;;;;;;2.17;0.70;;;9.60;99.90;;;;;;5067227;28;20539;-92
2020/12/22 04:30:18;;;;;;;7.53;0.83;;;9.70;99.90;;;;;;5049334;28;20417;-95
2020/12/22 04:32:43;;;;;;;1.30;0.60;;;9.70;99.90;;;;;;5068272;28;20743;-93
2020/12/22 04:35:09;;;;;;;2.63;0.40;;;9.80;99.90;;;;;;5073614;28;20230;-90
2020/12/22 04:37:34;;;;;;;1.43;0.60;;;9.80;99.90;;;;;;5054897;28;20182;-94
2020/12/22 04:40:00;;;;;;;1.70;0.40;;;9.80;99.90;;;;;;5054074;28;20174;-91
2020/12/22 04:42:28;;;;;;;2.67;0.90;;;9.90;99.90;;;;;;5052031;28;20261;-91
2020/12/22 04:44:54;;;;;;;1.33;0.20;;;9.90;99.90;;;;;;5051171;28;20206;-92
2020/12/22 04:47:20;;;;;;;1.27;0.77;;;9.90;99.90;;;;;;5065788;28;20420;-93
2020/12/22 04:49:52;;;;;;;2.77;0.47;;;10.00;99.90;;;;;;5067320;28;21008;-95
2020/12/22 04:52:21;;;;;;;0.77;0.33;;;10.10;99.90;;;;;;5052721;28;20979;-95
2020/12/22 04:54:50;;;;;;;1.13;0.60;;;10.10;99.90;;;;;;5068509;28;20420;-96
2020/12/22 04:57:17;;;;;;;2.63;0.67;;;10.10;99.90;;;;;;5066673;28;20453;-95
2020/12/22 04:59:45;;;;;;;0.97;0.30;;;10.10;99.90;;;;;;5043370;28;20462;-95
2020/12/22 05:02:12;;;;;;;1.33;0.47;;;10.10;99.90;;;;;;5043606;28;20477;-96
2020/12/22 05:04:38;;;;;;;2.83;0.20;;;10.10;99.90;;;;;;5060505;28;20450;-92
2020/12/22 05:07:07;;;;;;;1.80;0.40;;;10.10;99.90;;;;;;5059733;28;20417;-93
2020/12/22 05:09:33;;;;;;;1.30;0.20;;;10.20;99.90;;;;;;5056766;28;20410;-93
2020/12/22 05:11:59;;;;;;;1.57;0.20;;;10.20;99.90;;;;;;5061910;28;20453;-87
2020/12/22 05:14:26;;;;;;;1.20;0.27;;;10.20;99.90;;;;;;5057104;28;20166;-95
2020/12/22 05:16:55;;;;;;;0.80;0.20;;;10.30;99.90;;;;;;5054244;28;20175;-87
2020/12/22 05:19:33;;;;;;;0.60;0.30;;;10.30;99.90;;;;;;5059387;28;20437;-92
2020/12/22 05:22:00;;;;;;;1.80;0.20;;;10.30;99.90;;;;;;5058367;28;20944;-95
2020/12/22 05:24:27;;;;;;;0.80;0.40;;;10.40;99.90;;;;;;5069607;28;20450;-93
2020/12/22 05:26:53;;;;;;;0.30;0.20;;;10.50;99.90;;;;;;5066597;28;20418;-96
2020/12/22 05:29:19;;;;;;;1.00;0.20;;;10.50;99.90;;;;;;5071314;28;20421;-95
2020/12/22 05:31:46;;;;;;;2.10;0.20;;;10.70;99.90;;;;;;5052434;28;20485;-95
2020/12/22 05:34:13;;;;;;;0.40;0.20;;;10.70;99.90;;;;;;5060601;28;20465;-88
2020/12/22 05:36:40;;;;;;;0.50;0.40;;;10.80;99.90;;;;;;5036812;28;21002;-89
2020/12/22 05:39:07;;;;;;;0.80;0.27;;;10.90;99.90;;;;;;5054668;28;20421;-88
2020/12/22 05:41:35;;;;;;;0.63;0.47;;;11.00;99.90;;;;;;5037022;28;20422;-88
2020/12/22 05:44:01;;;;;;;2.90;0.30;;;11.10;99.90;;;;;;5055014;28;20418;-89
2020/12/22 05:46:29;;;;;;;1.50;0.70;;;11.20;99.90;;;;;;5036107;28;20565;-89
2020/12/22 05:48:59;;;;;;;3.50;0.50;;;11.20;99.90;;;;;;5035959;28;20552;-87
2020/12/22 05:51:25;;;;;;;1.67;0.60;;;11.30;99.90;;;;;;5036122;28;20421;-88
2020/12/22 05:53:52;;;;;;;1.47;0.80;;;11.40;99.90;;;;;;5053561;28;20465;-87
2020/12/22 05:56:21;;;;;;;3.10;1.50;;;11.50;99.90;;;;;;5053360;28;20568;-88
2020/12/22 05:58:47;;;;;;;2.03;0.90;;;11.60;99.90;;;;;;5052966;28;20960;-89
2020/12/22 06:01:13;;;;;;;2.67;1.83;;;11.60;99.90;;;;;;5036063;28;20446;-90
2020/12/22 06:03:42;;;;;;;2.50;1.73;;;11.60;99.90;;;;;;5036714;28;21009;-91
2020/12/22 06:06:07;;;;;;;2.30;1.33;;;11.70;99.90;;;;;;5036945;28;20169;-92
2020/12/22 06:08:34;;;;;;;2.70;2.20;;;11.70;99.90;;;;;;5039965;28;20453;-91
2020/12/22 06:11:01;;;;;;;4.10;1.90;;;11.80;99.90;;;;;;5073382;28;20778;-91
2020/12/22 06:13:27;;;;;;;3.53;1.30;;;11.80;99.90;;;;;;5073244;28;20800;-92
2020/12/22 06:15:53;;;;;;;3.57;2.50;;;11.90;99.90;;;;;;5073652;28;20472;-93
2020/12/22 06:18:20;;;;;;;2.67;1.70;;;11.90;99.90;;;;;;5073482;28;20731;-91
2020/12/22 06:20:46;;;;;;;2.80;1.80;;;12.00;99.90;;;;;;5074263;28;20418;-95
2020/12/22 06:23:18;;;;;;;2.67;1.40;;;12.00;99.90;;;;;;5074514;28;20862;-95
2020/12/22 06:25:43;;;;;;;2.60;1.00;;;12.10;99.90;;;;;;5073267;28;20263;-90
2020/12/22 06:28:28;;;;;;;1.87;1.13;;;12.10;99.90;;;;;;5072506;28;20855;-91
2020/12/22 06:30:54;;;;;;;3.30;2.10;;;12.20;99.90;;;;;;5072363;28;20175;-90
2020/12/22 06:33:27;;;;;;;4.00;2.37;;;12.10;99.90;;;;;;5073808;28;20886;-90
2020/12/22 06:35:58;;;;;;;2.77;2.03;;;12.10;99.90;;;;;;5072440;28;20179;-90
2020/12/22 06:38:43;;;;;;;4.57;2.73;;;12.20;99.90;;;;;;5056439;28;20427;-91
2020/12/22 06:41:09;;;;;;;2.33;1.70;;;12.10;99.90;;;;;;5056402;28;20423;-94
2020/12/22 06:43:45;;;;;;;2.37;1.40;;;12.20;99.90;;;;;;5073111;28;20417;-94
2020/12/22 06:46:33;;;;;;;1.97;1.37;;;12.20;99.90;;;;;;5071481;28;20175;-94
2020/12/22 06:49:08;;;;;;;2.90;1.33;;;12.20;99.90;;;;;;5074142;28;20770;-94
2020/12/22 06:51:37;;;;;;;1.53;1.37;;;12.20;99.90;;;;;;5078153;28;20425;-94
2020/12/22 06:54:27;;;;;;;1.67;0.83;;;12.20;99.90;;;;;;5077995;28;20508;-94
2020/12/22 06:56:54;;;;;;;1.77;0.60;;;12.20;99.90;;;;;;5048701;28;20994;-95
2020/12/22 06:59:47;;;;;;;1.10;0.50;;;12.20;99.90;;;;;;5074307;28;20916;-95
2020/12/22 07:02:36;;;;;;;4.73;0.70;;;12.20;99.90;;;;;;5054884;28;20978;-95
2020/12/22 07:05:06;;;;;;;2.07;0.90;;;12.30;99.90;;;;;;5080964;28;20415;-95
2020/12/22 07:07:54;;;;;;;0.70;0.33;;;12.30;99.90;;;;;;5079177;28;20408;-96
2020/12/22 07:10:21;;;;;;;1.80;1.40;;;12.30;99.90;;;;;;5070256;28;20423;-93
2020/12/22 07:12:48;;;;;;;1.20;0.47;;;12.30;99.90;;;;;;5069937;28;20462;-94
2020/12/22 07:15:13;;;;;;;1.43;0.83;;;12.40;99.90;;;;;;5069512;28;20422;-94
2020/12/22 07:17:39;;;;;;;1.00;0.83;;;12.40;99.90;;;;;;5069603;28;20416;-95
2020/12/22 07:20:05;;;;;;;1.50;1.00;;;12.40;99.90;;;;;;5069724;28;20180;-94
2020/12/22 07:22:30;;;;;;;1.40;0.67;;;12.40;99.90;;;;;;5069359;28;20177;-94
2020/12/22 07:24:56;;;;;;;0.97;0.20;;;12.40;99.90;;;;;;5069582;28;20279;-94
2020/12/22 07:27:22;;;;;;;1.13;0.77;;;12.40;99.90;;;;;;5069470;28;20177;-95
2020/12/22 07:29:47;;;;;;;2.30;0.90;;;12.50;99.90;;;;;;5069397;28;20178;-94
2020/12/22 07:32:13;;;;;;;0.60;0.50;;;12.50;99.90;;;;;;5068978;28;20173;-94
2020/12/22 07:34:39;;;;;;;1.10;0.80;;;12.50;99.90;;;;;;5069664;28;20201;-93
2020/12/22 07:37:08;;;;;;;1.00;0.53;;;12.50;99.90;;;;;;5069508;28;20642;-95
2020/12/22 07:39:34;;;;;;;1.30;0.87;;;12.50;99.90;;;;;;5070776;28;20431;-95
2020/12/22 07:42:18;;;;;;;4.53;0.80;;;12.50;99.90;;;;;;5073092;28;20416;-94
2020/12/22 07:44:45;;;;;;;1.30;0.80;;;12.60;99.90;;;;;;5073123;28;20427;-93
2020/12/22 07:47:12;;;;;;;1.50;0.40;;;12.60;99.90;;;;;;5073005;28;20410;-95
2020/12/22 07:49:39;;;;;;;1.10;0.40;;;12.60;99.90;;;;;;5073159;28;21007;-93
2020/12/22 07:52:05;;;;;;;0.60;0.30;;;12.60;99.90;;;;;;5073155;28;20412;-93
2020/12/22 07:54:31;;;;;;;1.20;0.70;;;12.60;99.90;;;;;;5073338;28;20911;-93
2020/12/22 07:57:00;;;;;;;0.90;0.60;;;12.70;99.90;;;;;;5075790;28;20324;-93
2020/12/22 07:59:27;;;;;;;0.93;0.50;;;12.70;99.90;;;;;;5073199;28;20427;-95
2020/12/22 08:01:53;;;;;;;0.90;0.40;;;12.70;99.90;;;;;;5072537;28;20408;-93
2020/12/22 08:04:27;;;;;;;0.60;0.43;;;12.70;99.90;;;;;;5073121;28;20423;-95
2020/12/22 08:07:03;;;;;;;1.10;0.20;;;12.70;99.90;;;;;;5074807;28;20505;-93
2020/12/22 08:09:33;;;;;;;0.83;0.50;;;12.70;99.90;;;;;;5096109;28;20428;-91
2020/12/22 08:12:01;;;;;;;1.80;0.40;;;12.70;99.90;;;;;;5080577;28;20431;-93
2020/12/22 08:14:28;;;;;;;2.10;0.30;;;12.70;99.90;;;;;;5073046;28;20464;-94
2020/12/22 08:17:03;;;;;;;1.33;0.77;;;12.70;99.90;;;;;;5090078;28;20428;-94
2020/12/22 08:19:35;;;;;;;1.20;0.30;;;12.70;99.90;;;;;;5076194;28;20418;-93
2020/12/22 08:22:01;;;;;;;0.60;0.40;;;12.90;99.90;;;;;;5078213;28;20503;-92
2020/12/22 08:24:37;;;;;;;0.80;0.27;;;12.80;99.90;;;;;;5093829;28;20431;-93
2020/12/22 08:27:09;;;;;;;0.97;0.30;;;12.80;99.90;;;;;;5077586;28;20451;-92
2020/12/22 08:29:38;;;;;;;0.40;0.20;;;12.90;99.90;;;;;;5090921;28;20447;-93
2020/12/22 08:32:07;;;;;;;0.53;0.30;;;12.90;99.90;;;;;;5073544;28;20412;-91
2020/12/22 08:34:33;;;;;;;0.57;0.20;;;12.90;99.90;;;;;;5090511;28;20482;-94
2020/12/22 08:37:08;;;;;;;0.40;0.20;;;12.90;99.90;;;;;;5071485;28;20423;-96
2020/12/22 08:39:43;;;;;;;0.53;0.20;;;13.00;99.90;;;;;;5071673;28;20503;-94
2020/12/22 08:42:10;;;;;;;0.50;0.20;;;13.00;99.90;;;;;;5068794;28;20418;-96
2020/12/22 08:44:39;;;;;;;0.60;0.50;;;12.90;99.90;;;;;;5085353;28;20428;-95
2020/12/22 08:47:12;;;;;;;0.40;0.20;;;13.00;99.90;;;;;;5083199;28;20424;-95
2020/12/22 08:49:38;;;;;;;1.50;0.20;;;13.00;99.90;;;;;;5081611;28;20440;-95
2020/12/22 08:52:15;;;;;;;1.23;0.23;;;13.00;99.90;;;;;;5067307;28;20408;-94
2020/12/22 08:54:42;;;;;;;1.17;0.20;;;13.00;99.90;;;;;;5085627;28;20427;-94
2020/12/22 08:57:14;;;;;;;0.60;0.20;;;13.00;99.90;;;;;;5084630;28;20459;-95
2020/12/22 08:59:50;;;;;;;0.53;0.20;;;13.10;99.90;;;;;;5069618;28;20436;-95
2020/12/22 09:02:29;;;;;;;5.93;0.20;;;13.10;99.90;;;;;;5070314;28;20413;-95
2020/12/22 09:04:56;;;;;;;2.40;0.20;;;13.10;99.90;;;;;;5067345;28;20431;-96
2020/12/22 09:07:25;;;;;;;0.70;0.23;;;13.20;99.90;;;;;;5088377;28;20813;-96
2020/12/22 09:09:52;;;;;;;1.43;0.30;;;13.20;99.90;;;;;;5089325;28;20490;-94
2020/12/22 09:12:18;;;;;;;0.47;0.20;;;13.20;99.90;;;;;;5089833;28;20492;-94
2020/12/22 09:14:48;;;;;;;0.90;0.20;;;13.10;99.90;;;;;;5074013;28;20435;-94
2020/12/22 09:17:29;;;;;;;0.63;0.20;;;13.10;99.90;;;;;;5088235;28;20405;-94
2020/12/22 09:19:56;;;;;;;0.80;0.30;;;13.10;99.90;;;;;;5082858;28;20453;-96
2020/12/22 09:22:30;;;;;;;0.93;0.30;;;13.10;99.90;;;;;;5085749;28;20422;-95
2020/12/22 09:25:01;;;;;;;0.60;0.20;;;13.10;99.90;;;;;;5085393;28;20426;-94
2020/12/22 09:27:29;;;;;;;0.60;0.37;;;13.10;99.90;;;;;;5082245;28;20425;-93
2020/12/22 09:29:55;;;;;;;0.43;0.23;;;13.10;99.90;;;;;;5085202;28;20427;-94
2020/12/22 09:32:21;;;;;;;0.37;0.20;;;13.10;99.90;;;;;;5087176;28;20415;-94
2020/12/22 09:34:46;;;;;;;3.70;0.43;;;13.10;99.90;;;;;;5087598;28;20430;-95
2020/12/22 09:37:12;;;;;;;1.20;0.50;;;13.10;99.90;;;;;;5086921;28;20168;-96
2020/12/22 09:39:38;;;;;;;0.67;0.20;;;13.10;99.90;;;;;;5083957;28;20205;-95
2020/12/22 09:42:05;;;;;;;0.70;0.47;;;13.10;99.90;;;;;;5068626;28;20572;-93
2020/12/22 09:44:32;;;;;;;0.60;0.20;;;13.10;99.90;;;;;;5089136;28;20424;-95
2020/12/22 09:46:58;;;;;;;0.77;0.30;;;13.10;99.90;;;;;;5090115;28;20437;-94
2020/12/22 09:49:25;;;;;;;2.20;0.30;;;13.10;99.90;;;;;;5093336;28;20477;-94
2020/12/22 09:51:54;;;;;;;1.47;0.43;;;13.20;99.90;;;;;;5092075;28;20427;-95
2020/12/22 09:54:22;;;;;;;0.80;0.20;;;13.20;99.90;;;;;;5095666;28;20526;-90
2020/12/22 09:56:49;;;;;;;1.20;0.40;;;13.20;99.90;;;;;;5062731;28;20439;-92
2020/12/22 09:59:16;;;;;;;0.67;0.50;;;13.30;99.90;;;;;;5096935;28;20419;-92
2020/12/22 10:01:51;;;;;;;0.70;0.20;;;13.30;99.90;;;;;;5079959;28;20404;-91
2020/12/22 10:04:39;;;;;;;1.00;0.30;;;13.40;99.90;;;;;;5096563;28;20430;-94
2020/12/22 10:07:05;;;;;;;0.83;0.20;;;13.50;99.90;;;;;;5078572;28;20404;-94
2020/12/22 10:09:33;;;;;;;0.40;0.20;;;13.50;99.90;;;;;;5095517;28;20445;-95
2020/12/22 10:11:59;;;;;;;0.90;0.20;;;13.50;99.90;;;;;;5077997;28;20924;-96
2020/12/22 10:14:24;;;;;;;1.27;0.20;;;13.50;99.90;;;;;;5086528;28;20470;-94
2020/12/22 10:16:50;;;;;;;1.23;0.27;;;13.50;99.90;;;;;;5090066;28;20237;-94
2020/12/22 10:19:15;;;;;;;0.57;0.30;;;13.50;99.90;;;;;;5090172;28;20200;-96
2020/12/22 10:21:44;;;;;;;0.63;0.10;;;13.50;99.90;;;;;;5091372;28;20169;-92
2020/12/22 10:24:12;;;;;;;0.30;0.20;;;13.40;99.90;;;;;;5076498;28;20177;-94
2020/12/22 10:26:38;;;;;;;0.50;0.20;;;13.30;99.90;;;;;;5095902;28;20408;-95
2020/12/22 10:29:04;;;;;;;1.80;0.20;;;13.30;99.90;;;;;;5097018;28;20430;-96
2020/12/22 10:31:30;;;;;;;0.63;0.47;;;13.30;99.90;;;;;;5097554;28;20180;-95
2020/12/22 10:33:57;;;;;;;1.07;0.40;;;13.20;99.90;;;;;;5092302;28;20265;-96
2020/12/22 10:36:24;;;;;;;3.07;0.20;;;13.20;99.90;;;;;;5094482;28;20426;-94
2020/12/22 10:38:54;;;;;;;0.70;0.30;;;13.30;99.90;;;;;;5091636;28;20451;-95
2020/12/22 10:41:20;;;;;;;1.47;0.20;;;13.30;99.90;;;;;;5096694;28;20415;-95
2020/12/22 10:43:47;;;;;;;1.27;0.30;;;13.30;99.90;;;;;;5096814;28;20517;-95
2020/12/22 10:46:13;;;;;;;1.67;0.53;;;13.30;99.90;;;;;;5092960;28;20185;-96
2020/12/22 10:48:39;;;;;;;1.53;0.40;;;13.30;99.90;;;;;;5077545;28;20422;-95
2020/12/22 10:51:04;;;;;;;0.40;0.20;;;13.30;99.90;;;;;;5097835;28;20176;-94
2020/12/22 10:53:30;;;;;;;0.70;0.67;;;13.30;99.90;;;;;;5096860;28;20224;-94
2020/12/22 10:55:58;;;;;;;0.70;0.40;;;13.40;99.90;;;;;;5077633;28;20505;-95
2020/12/22 10:58:23;;;;;;;1.40;0.33;;;13.40;99.90;;;;;;5093274;28;20173;-94
2020/12/22 11:00:49;;;;;;;1.87;0.40;;;13.40;99.90;;;;;;5074490;28;20441;-95
2020/12/22 11:03:19;;;;;;;0.80;0.40;;;13.40;99.90;;;;;;5092922;28;20187;-94
2020/12/22 11:06:04;;;;;;;1.00;0.20;;;13.40;99.90;;;;;;5095262;28;20181;-95
2020/12/22 11:08:29;;;;;;;0.50;0.30;;;13.40;99.90;;;;;;5097523;28;20419;-92
2020/12/22 11:10:55;;;;;;;3.03;0.40;;;13.40;99.90;;;;;;5098174;28;20434;-92
2020/12/22 11:13:20;;;;;;;1.13;0.20;;;13.30;99.90;;;;;;5086628;28;20224;-95
2020/12/22 11:15:46;;;;;;;1.83;0.20;;;13.30;99.90;;;;;;5089670;28;20165;-95
2020/12/22 11:18:12;;;;;;;0.50;0.40;;;13.10;99.90;;;;;;5091057;28;20175;-94
2020/12/22 11:20:38;;;;;;;0.50;0.20;;;12.90;99.90;;;;;;5076832;28;20177;-96
2020/12/22 11:23:04;;;;;;;1.50;0.27;;;12.80;99.90;;;;;;5083949;28;20786;-94
2020/12/22 11:25:29;;;;;;;1.17;0.20;;;12.70;99.90;;;;;;5085624;28;20178;-94
2020/12/22 11:27:56;;;;;;;0.93;0.20;;;12.60;99.90;;;;;;5081392;28;20480;-95
2020/12/22 11:30:22;;;;;;;1.33;0.20;;;12.50;99.90;;;;;;5080529;28;20194;-95
2020/12/22 11:32:48;;;;;;;2.30;0.20;;;12.40;99.90;;;;;;5083162;28;20455;-89
2020/12/22 11:35:14;;;;;;;2.43;0.30;;;12.40;99.90;;;;;;5077166;28;20414;-91
2020/12/22 11:37:40;;;;;;;1.10;0.47;;;12.30;99.90;;;;;;5076143;28;20643;-90
2020/12/22 11:40:06;;;;;;;2.57;0.77;;;12.00;99.90;;;;;;5076750;28;20517;-91
2020/12/22 11:42:32;;;;;;;2.27;0.70;;;11.90;99.90;;;;;;5076002;28;20198;-90
2020/12/22 11:44:58;;;;;;;2.63;0.53;;;11.80;99.90;;;;;;5075754;28;20307;-91
2020/12/22 11:47:23;;;;;;;3.50;1.07;;;11.80;99.90;;;;;;5059193;28;20444;-90
2020/12/22 11:49:49;;;;;;;2.00;1.53;;;11.60;99.90;;;;;;5075663;28;20171;-90
2020/12/22 11:52:16;;;;;;;3.53;1.30;;;11.50;99.90;;;;;;5075827;28;20179;-90
2020/12/22 11:54:41;;;;;;;5.33;2.47;;;11.50;99.90;;;;;;5075664;28;20190;-91
2020/12/22 11:57:07;;;;;;;2.20;1.83;;;11.40;99.90;;;;;;5076468;28;20465;-90
2020/12/22 11:59:34;;;;;;;2.97;1.33;;;11.30;99.90;;;;;;5058672;28;20183;-90
2020/12/22 12:02:06;;;;;;;4.17;1.27;;;11.20;99.90;;;;;;5059025;28;20193;-89
2020/12/22 12:04:32;;;;;;;3.63;1.43;;;11.10;99.90;;;;;;5075714;28;20976;-90
2020/12/22 12:06:59;;;;;;;6.90;2.57;;;11.10;99.90;;;;;;5075539;28;20417;-90
2020/12/22 12:09:25;;;;;;;4.20;1.60;;;11.10;99.90;;;;;;5058675;28;20433;-89
2020/12/22 12:11:51;;;;;;;5.43;2.67;;;11.20;99.90;;;;;;5076224;28;20953;-89
2020/12/22 12:14:18;;;;;;;3.97;1.80;;;11.20;99.90;;;;;;5075100;28;20482;-89
2020/12/22 12:16:50;;;;;;;12.23;3.97;;;11.10;99.90;;;;;;5075257;28;20174;-89
2020/12/22 12:19:18;;;;;;;6.10;2.43;;;11.10;99.90;;;;;;5075439;28;20426;-89
2020/12/22 12:21:47;;;;;;;6.57;2.47;;;11.10;99.90;;;;;;5058578;28;20502;-90
2020/12/22 12:24:12;;;;;;;5.77;2.67;;;11.20;99.90;;;;;;5075062;28;20413;-89
2020/12/22 12:26:38;;;;;;;5.70;2.47;;;11.20;99.90;;;;;;5075740;28;20413;-88
2020/12/22 12:29:05;;;;;;;4.73;2.10;;;11.10;99.90;;;;;;5075106;28;20177;-90
2020/12/22 12:31:32;;;;;;;5.70;2.40;;;11.10;99.90;;;;;;5058347;28;20177;-90
2020/12/22 12:33:58;;;;;;;6.73;2.57;;;11.10;99.90;;;;;;5058696;28;20472;-89
2020/12/22 12:36:24;;;;;;;7.03;3.10;;;11.10;99.90;;;;;;5075382;28;20413;-90
2020/12/22 12:38:49;;;;;;;4.50;1.90;;;11.10;99.90;;;;;;5075503;28;20477;-90
2020/12/22 12:41:15;;;;;;;6.27;1.67;;;11.10;99.90;;;;;;5081586;28;20168;-95
2020/12/22 12:43:51;;;;;;;2.93;1.40;;;11.10;99.90;;;;;;5086166;28;20186;-95
2020/12/22 12:46:17;;;;;;;4.00;1.00;;;11.10;99.90;;;;;;5084818;28;20171;-94
2020/12/22 12:48:42;;;;;;;3.57;1.43;;;11.00;99.90;;;;;;5084637;28;20418;-94
2020/12/22 12:51:09;;;;;;;10.13;1.37;;;11.00;99.90;;;;;;5087981;28;20179;-92
2020/12/22 12:53:37;;;;;;;3.87;1.07;;;11.00;99.90;;;;;;5081069;28;20211;-91